YBCS METAR and TAF | Updated Today

YBCS METAR

Cairns International Airport

Observation time: 34 min. ago

YBCS 251900Z AUTO 14004KT 9999 // NCD 21/19 Q1011

Need help? Read our tutorial on how to read METARs or read the parsed version below.

Cairns International Airport (YBCS) METAR

  • Weather conditions on Wed, 25 May 2022 19:00:00 +0000 (34 min. ago):
  • Present conditions: Dry
  • Clouds: Nil cloud detected
  • Visibility: Greater than 10 km
  • Wind: 140 degrees at 4 knots
  • Temperature: 21 celsius
  • Dew point: 19 celsius
  • Pressure: 1011 millibars
  • Remarks: None


Useful to know...

YBCS TAF

Cairns International Airport

TAF YBCS 251711Z 2518/2618 15005KT 9999 SCT025 FM260200 12010KT 9999 SCT030 FM260800 16006KT 9999 SCT025
Observation time: 2:23 hr. ago
Need help? Read our tutorial on how to read TAFs or read the parsed version below.

Parsed version of TAF for Cairns International Airport (YBCS)

  • From 25 May at 18:00 UTC, to day 26 of the month at 18:00 UTC
  • Clouds: Scattered at 762 meters
  • Visibility: Greater than 10 km
  • Wind: 150 degrees at 5
  • From day 26 of the month at 02:00 UTC
  • Clouds: Scattered at 914 meters
  • Visibility: Greater than 10 km
  • Wind: 120 degrees at 10
  • From day 26 of the month at 08:00 UTC
  • Clouds: Scattered at 762 meters
  • Visibility: Greater than 10 km
  • Wind: 160 degrees at 6

Airports near YBCS

No airports found within 100nm radius.